sensor_id;sensor_type;location;lat;lon;timestamp;P1;durP1;ratioP1;P2;durP2;ratioP2
10653;SDS011;5375;51.250;6.776;2023-06-22T00:00:29;4.35;;;3.40;;
10653;SDS011;5375;51.250;6.776;2023-06-22T00:02:54;4.90;;;3.13;;
10653;SDS011;5375;51.250;6.776;2023-06-22T00:05:20;4.60;;;3.20;;
10653;SDS011;5375;51.250;6.776;2023-06-22T00:07:46;6.72;;;3.05;;
10653;SDS011;5375;51.250;6.776;2023-06-22T00:10:11;4.18;;;3.42;;
10653;SDS011;5375;51.250;6.776;2023-06-22T00:12:37;5.97;;;3.60;;
10653;SDS011;5375;51.250;6.776;2023-06-22T00:15:03;4.28;;;3.75;;
10653;SDS011;5375;51.250;6.776;2023-06-22T00:17:29;5.00;;;3.30;;
10653;SDS011;5375;51.250;6.776;2023-06-22T00:19:54;4.45;;;3.20;;
10653;SDS011;5375;51.250;6.776;2023-06-22T00:22:20;8.32;;;3.40;;
10653;SDS011;5375;51.250;6.776;2023-06-22T00:24:53;3.72;;;3.35;;
10653;SDS011;5375;51.250;6.776;2023-06-22T00:27:21;4.78;;;3.38;;
10653;SDS011;5375;51.250;6.776;2023-06-22T00:29:47;7.93;;;3.90;;
10653;SDS011;5375;51.250;6.776;2023-06-22T00:32:12;4.68;;;3.40;;
10653;SDS011;5375;51.250;6.776;2023-06-22T00:34:38;6.63;;;3.38;;
10653;SDS011;5375;51.250;6.776;2023-06-22T00:37:03;5.28;;;3.60;;
10653;SDS011;5375;51.250;6.776;2023-06-22T00:39:29;5.65;;;3.20;;
10653;SDS011;5375;51.250;6.776;2023-06-22T00:41:55;5.70;;;3.63;;
10653;SDS011;5375;51.250;6.776;2023-06-22T00:44:20;4.95;;;3.58;;
10653;SDS011;5375;51.250;6.776;2023-06-22T00:46:46;4.40;;;3.08;;
10653;SDS011;5375;51.250;6.776;2023-06-22T00:49:11;4.60;;;3.60;;
10653;SDS011;5375;51.250;6.776;2023-06-22T00:51:37;6.28;;;3.65;;
10653;SDS011;5375;51.250;6.776;2023-06-22T00:54:04;4.20;;;3.30;;
10653;SDS011;5375;51.250;6.776;2023-06-22T00:56:30;5.07;;;3.40;;
10653;SDS011;5375;51.250;6.776;2023-06-22T00:58:57;4.40;;;3.55;;
10653;SDS011;5375;51.250;6.776;2023-06-22T01:01:25;5.07;;;3.63;;
10653;SDS011;5375;51.250;6.776;2023-06-22T01:03:50;6.13;;;3.33;;
10653;SDS011;5375;51.250;6.776;2023-06-22T01:06:18;3.80;;;3.28;;
10653;SDS011;5375;51.250;6.776;2023-06-22T01:08:53;5.35;;;3.20;;
10653;SDS011;5375;51.250;6.776;2023-06-22T01:11:32;6.47;;;3.58;;
10653;SDS011;5375;51.250;6.776;2023-06-22T01:14:19;6.20;;;3.15;;
10653;SDS011;5375;51.250;6.776;2023-06-22T01:16:47;4.53;;;3.38;;
10653;SDS011;5375;51.250;6.776;2023-06-22T01:19:19;4.47;;;3.22;;
10653;SDS011;5375;51.250;6.776;2023-06-22T01:22:01;3.85;;;3.30;;
10653;SDS011;5375;51.250;6.776;2023-06-22T01:29:51;5.65;;;3.50;;
10653;SDS011;5375;51.250;6.776;2023-06-22T01:32:20;5.20;;;3.17;;
10653;SDS011;5375;51.250;6.776;2023-06-22T01:34:46;5.88;;;3.38;;
10653;SDS011;5375;51.250;6.776;2023-06-22T01:37:13;6.72;;;3.67;;
10653;SDS011;5375;51.250;6.776;2023-06-22T01:39:39;5.50;;;3.45;;
10653;SDS011;5375;51.250;6.776;2023-06-22T01:42:06;4.53;;;3.50;;
10653;SDS011;5375;51.250;6.776;2023-06-22T01:44:31;6.35;;;3.42;;
10653;SDS011;5375;51.250;6.776;2023-06-22T01:46:59;5.00;;;3.55;;
10653;SDS011;5375;51.250;6.776;2023-06-22T01:49:24;3.78;;;3.20;;
10653;SDS011;5375;51.250;6.776;2023-06-22T01:51:50;4.93;;;3.30;;
10653;SDS011;5375;51.250;6.776;2023-06-22T01:54:16;6.53;;;3.63;;
10653;SDS011;5375;51.250;6.776;2023-06-22T01:56:41;4.63;;;3.88;;
10653;SDS011;5375;51.250;6.776;2023-06-22T02:01:52;4.60;;;3.60;;
10653;SDS011;5375;51.250;6.776;2023-06-22T02:04:27;7.47;;;4.10;;
10653;SDS011;5375;51.250;6.776;2023-06-22T02:06:59;6.72;;;3.90;;
10653;SDS011;5375;51.250;6.776;2023-06-22T02:09:26;6.88;;;4.28;;
10653;SDS011;5375;51.250;6.776;2023-06-22T02:11:55;5.93;;;3.72;;
10653;SDS011;5375;51.250;6.776;2023-06-22T02:14:22;4.68;;;3.65;;
10653;SDS011;5375;51.250;6.776;2023-06-22T02:16:50;5.18;;;3.42;;
10653;SDS011;5375;51.250;6.776;2023-06-22T02:19:16;5.47;;;3.75;;
10653;SDS011;5375;51.250;6.776;2023-06-22T02:21:47;6.55;;;3.85;;
10653;SDS011;5375;51.250;6.776;2023-06-22T02:24:12;6.07;;;4.07;;
10653;SDS011;5375;51.250;6.776;2023-06-22T02:26:38;4.82;;;3.90;;
10653;SDS011;5375;51.250;6.776;2023-06-22T02:29:07;6.55;;;3.70;;
10653;SDS011;5375;51.250;6.776;2023-06-22T02:31:33;6.72;;;4.20;;
10653;SDS011;5375;51.250;6.776;2023-06-22T02:33:59;5.85;;;4.07;;
10653;SDS011;5375;51.250;6.776;2023-06-22T02:36:24;4.72;;;4.03;;
10653;SDS011;5375;51.250;6.776;2023-06-22T02:38:52;7.07;;;4.40;;
10653;SDS011;5375;51.250;6.776;2023-06-22T02:41:19;8.40;;;4.20;;
10653;SDS011;5375;51.250;6.776;2023-06-22T02:43:45;6.13;;;4.10;;
10653;SDS011;5375;51.250;6.776;2023-06-22T02:46:11;8.20;;;4.00;;
10653;SDS011;5375;51.250;6.776;2023-06-22T02:48:38;8.85;;;4.30;;
10653;SDS011;5375;51.250;6.776;2023-06-22T02:51:04;6.97;;;4.20;;
10653;SDS011;5375;51.250;6.776;2023-06-22T02:53:30;5.53;;;4.10;;
10653;SDS011;5375;51.250;6.776;2023-06-22T02:55:57;6.13;;;4.00;;
10653;SDS011;5375;51.250;6.776;2023-06-22T02:58:22;6.50;;;3.58;;
10653;SDS011;5375;51.250;6.776;2023-06-22T03:00:49;5.03;;;3.72;;
10653;SDS011;5375;51.250;6.776;2023-06-22T03:03:18;7.40;;;3.55;;
10653;SDS011;5375;51.250;6.776;2023-06-22T03:05:44;7.47;;;4.13;;
10653;SDS011;5375;51.250;6.776;2023-06-22T03:08:09;8.57;;;4.07;;
10653;SDS011;5375;51.250;6.776;2023-06-22T03:10:35;4.82;;;3.50;;
10653;SDS011;5375;51.250;6.776;2023-06-22T03:13:01;5.35;;;3.58;;
10653;SDS011;5375;51.250;6.776;2023-06-22T03:15:26;6.50;;;4.25;;
10653;SDS011;5375;51.250;6.776;2023-06-22T03:17:54;9.57;;;4.38;;
10653;SDS011;5375;51.250;6.776;2023-06-22T03:20:20;6.13;;;4.80;;
10653;SDS011;5375;51.250;6.776;2023-06-22T03:22:45;8.23;;;4.65;;
10653;SDS011;5375;51.250;6.776;2023-06-22T03:25:11;7.10;;;4.68;;
10653;SDS011;5375;51.250;6.776;2023-06-22T03:27:41;7.03;;;4.63;;
10653;SDS011;5375;51.250;6.776;2023-06-22T03:30:11;8.10;;;4.75;;
10653;SDS011;5375;51.250;6.776;2023-06-22T03:32:37;9.27;;;5.30;;
10653;SDS011;5375;51.250;6.776;2023-06-22T03:35:03;8.98;;;4.80;;
10653;SDS011;5375;51.250;6.776;2023-06-22T03:37:28;10.85;;;7.25;;
10653;SDS011;5375;51.250;6.776;2023-06-22T03:39:54;11.23;;;7.82;;
10653;SDS011;5375;51.250;6.776;2023-06-22T03:42:20;13.85;;;8.77;;
10653;SDS011;5375;51.250;6.776;2023-06-22T03:44:46;10.80;;;8.00;;
10653;SDS011;5375;51.250;6.776;2023-06-22T03:47:12;14.45;;;9.07;;
10653;SDS011;5375;51.250;6.776;2023-06-22T03:49:38;15.38;;;9.15;;
10653;SDS011;5375;51.250;6.776;2023-06-22T03:52:03;10.80;;;8.57;;
10653;SDS011;5375;51.250;6.776;2023-06-22T03:54:30;13.15;;;9.15;;
10653;SDS011;5375;51.250;6.776;2023-06-22T03:56:57;11.77;;;8.70;;
10653;SDS011;5375;51.250;6.776;2023-06-22T03:59:23;12.73;;;8.63;;
10653;SDS011;5375;51.250;6.776;2023-06-22T04:01:49;12.35;;;8.60;;
10653;SDS011;5375;51.250;6.776;2023-06-22T04:04:15;12.02;;;8.52;;
10653;SDS011;5375;51.250;6.776;2023-06-22T04:06:42;12.45;;;8.77;;
10653;SDS011;5375;51.250;6.776;2023-06-22T04:09:08;11.75;;;9.13;;
10653;SDS011;5375;51.250;6.776;2023-06-22T04:11:33;12.38;;;8.45;;
10653;SDS011;5375;51.250;6.776;2023-06-22T04:13:59;13.70;;;9.60;;
10653;SDS011;5375;51.250;6.776;2023-06-22T04:16:25;14.00;;;8.98;;
10653;SDS011;5375;51.250;6.776;2023-06-22T04:18:50;14.27;;;8.73;;
10653;SDS011;5375;51.250;6.776;2023-06-22T04:21:16;14.15;;;9.43;;
10653;SDS011;5375;51.250;6.776;2023-06-22T04:23:42;14.77;;;8.68;;
10653;SDS011;5375;51.250;6.776;2023-06-22T04:26:08;11.40;;;8.35;;
10653;SDS011;5375;51.250;6.776;2023-06-22T04:28:34;11.95;;;8.80;;
10653;SDS011;5375;51.250;6.776;2023-06-22T04:31:03;14.65;;;9.43;;
10653;SDS011;5375;51.250;6.776;2023-06-22T04:33:29;14.68;;;8.88;;
10653;SDS011;5375;51.250;6.776;2023-06-22T04:35:54;16.30;;;9.52;;
10653;SDS011;5375;51.250;6.776;2023-06-22T04:38:23;14.32;;;8.98;;
10653;SDS011;5375;51.250;6.776;2023-06-22T04:40:49;14.10;;;8.63;;
10653;SDS011;5375;51.250;6.776;2023-06-22T04:43:15;12.35;;;8.80;;
10653;SDS011;5375;51.250;6.776;2023-06-22T04:45:41;12.40;;;9.15;;
10653;SDS011;5375;51.250;6.776;2023-06-22T04:48:07;12.05;;;8.50;;
10653;SDS011;5375;51.250;6.776;2023-06-22T04:50:34;13.32;;;9.45;;
10653;SDS011;5375;51.250;6.776;2023-06-22T04:53:06;15.35;;;9.65;;
10653;SDS011;5375;51.250;6.776;2023-06-22T04:55:32;12.77;;;9.70;;
10653;SDS011;5375;51.250;6.776;2023-06-22T04:57:58;13.40;;;10.35;;
10653;SDS011;5375;51.250;6.776;2023-06-22T05:00:29;15.23;;;10.20;;
10653;SDS011;5375;51.250;6.776;2023-06-22T05:02:55;13.68;;;10.20;;
10653;SDS011;5375;51.250;6.776;2023-06-22T05:05:25;16.33;;;10.63;;
10653;SDS011;5375;51.250;6.776;2023-06-22T05:07:51;14.98;;;10.35;;
10653;SDS011;5375;51.250;6.776;2023-06-22T05:10:24;16.17;;;10.40;;
10653;SDS011;5375;51.250;6.776;2023-06-22T05:12:50;11.05;;;9.75;;
10653;SDS011;5375;51.250;6.776;2023-06-22T05:15:15;11.73;;;9.85;;
10653;SDS011;5375;51.250;6.776;2023-06-22T05:17:41;15.07;;;10.90;;
10653;SDS011;5375;51.250;6.776;2023-06-22T05:20:10;11.70;;;9.88;;
10653;SDS011;5375;51.250;6.776;2023-06-22T05:22:37;13.52;;;9.98;;
10653;SDS011;5375;51.250;6.776;2023-06-22T05:25:05;12.45;;;9.50;;
10653;SDS011;5375;51.250;6.776;2023-06-22T05:27:33;14.50;;;9.75;;
10653;SDS011;5375;51.250;6.776;2023-06-22T05:29:58;13.35;;;10.00;;
10653;SDS011;5375;51.250;6.776;2023-06-22T05:32:24;14.25;;;10.18;;
10653;SDS011;5375;51.250;6.776;2023-06-22T05:34:50;12.63;;;10.45;;
10653;SDS011;5375;51.250;6.776;2023-06-22T05:37:15;13.43;;;9.65;;
10653;SDS011;5375;51.250;6.776;2023-06-22T05:39:41;13.43;;;9.82;;
10653;SDS011;5375;51.250;6.776;2023-06-22T05:42:07;16.77;;;10.25;;
10653;SDS011;5375;51.250;6.776;2023-06-22T05:44:33;16.52;;;10.50;;
10653;SDS011;5375;51.250;6.776;2023-06-22T05:46:59;14.98;;;10.05;;
10653;SDS011;5375;51.250;6.776;2023-06-22T05:49:25;12.60;;;9.77;;
10653;SDS011;5375;51.250;6.776;2023-06-22T05:51:57;17.08;;;9.85;;
10653;SDS011;5375;51.250;6.776;2023-06-22T05:54:23;11.85;;;9.02;;
10653;SDS011;5375;51.250;6.776;2023-06-22T05:56:48;12.98;;;9.73;;
10653;SDS011;5375;51.250;6.776;2023-06-22T05:59:14;13.05;;;10.20;;
10653;SDS011;5375;51.250;6.776;2023-06-22T06:01:40;13.25;;;9.13;;
10653;SDS011;5375;51.250;6.776;2023-06-22T06:04:06;13.88;;;8.38;;
10653;SDS011;5375;51.250;6.776;2023-06-22T06:06:34;11.98;;;7.68;;
10653;SDS011;5375;51.250;6.776;2023-06-22T06:09:03;9.32;;;7.22;;
10653;SDS011;5375;51.250;6.776;2023-06-22T06:11:32;10.85;;;6.97;;
10653;SDS011;5375;51.250;6.776;2023-06-22T06:13:58;10.63;;;7.28;;
10653;SDS011;5375;51.250;6.776;2023-06-22T06:16:24;9.85;;;6.93;;
10653;SDS011;5375;51.250;6.776;2023-06-22T06:18:49;12.85;;;7.10;;
10653;SDS011;5375;51.250;6.776;2023-06-22T06:21:15;7.93;;;5.97;;
10653;SDS011;5375;51.250;6.776;2023-06-22T06:23:41;10.95;;;5.90;;
10653;SDS011;5375;51.250;6.776;2023-06-22T06:26:07;9.05;;;5.30;;
10653;SDS011;5375;51.250;6.776;2023-06-22T06:28:33;8.73;;;5.50;;
10653;SDS011;5375;51.250;6.776;2023-06-22T06:31:00;6.35;;;4.82;;
10653;SDS011;5375;51.250;6.776;2023-06-22T06:33:25;7.55;;;4.75;;
10653;SDS011;5375;51.250;6.776;2023-06-22T06:35:51;8.25;;;5.60;;
10653;SDS011;5375;51.250;6.776;2023-06-22T06:38:17;9.07;;;4.75;;
10653;SDS011;5375;51.250;6.776;2023-06-22T06:40:42;7.95;;;4.95;;
10653;SDS011;5375;51.250;6.776;2023-06-22T06:43:09;6.35;;;5.18;;
10653;SDS011;5375;51.250;6.776;2023-06-22T06:45:35;8.32;;;4.65;;
10653;SDS011;5375;51.250;6.776;2023-06-22T06:48:00;6.40;;;4.22;;
10653;SDS011;5375;51.250;6.776;2023-06-22T06:50:26;5.93;;;4.57;;
10653;SDS011;5375;51.250;6.776;2023-06-22T06:52:52;7.70;;;4.95;;
10653;SDS011;5375;51.250;6.776;2023-06-22T06:55:18;5.72;;;4.30;;
10653;SDS011;5375;51.250;6.776;2023-06-22T06:57:44;6.57;;;4.78;;
10653;SDS011;5375;51.250;6.776;2023-06-22T07:00:13;7.90;;;4.25;;
10653;SDS011;5375;51.250;6.776;2023-06-22T07:02:40;5.30;;;4.20;;
10653;SDS011;5375;51.250;6.776;2023-06-22T07:05:08;5.80;;;4.40;;
10653;SDS011;5375;51.250;6.776;2023-06-22T07:07:35;6.03;;;4.38;;
10653;SDS011;5375;51.250;6.776;2023-06-22T07:10:00;4.97;;;4.20;;
10653;SDS011;5375;51.250;6.776;2023-06-22T07:12:26;6.43;;;4.80;;
10653;SDS011;5375;51.250;6.776;2023-06-22T07:14:52;5.13;;;4.07;;
10653;SDS011;5375;51.250;6.776;2023-06-22T07:17:18;6.38;;;4.30;;
10653;SDS011;5375;51.250;6.776;2023-06-22T07:19:43;5.15;;;4.07;;
10653;SDS011;5375;51.250;6.776;2023-06-22T07:22:09;5.85;;;4.53;;
10653;SDS011;5375;51.250;6.776;2023-06-22T07:24:35;5.63;;;4.28;;
10653;SDS011;5375;51.250;6.776;2023-06-22T07:27:00;6.47;;;4.03;;
10653;SDS011;5375;51.250;6.776;2023-06-22T07:29:27;5.57;;;4.07;;
10653;SDS011;5375;51.250;6.776;2023-06-22T07:31:52;5.15;;;3.83;;
10653;SDS011;5375;51.250;6.776;2023-06-22T07:34:19;4.47;;;4.00;;
10653;SDS011;5375;51.250;6.776;2023-06-22T07:36:44;6.22;;;4.50;;
10653;SDS011;5375;51.250;6.776;2023-06-22T07:39:11;6.68;;;4.15;;
10653;SDS011;5375;51.250;6.776;2023-06-22T07:41:38;5.90;;;4.25;;
10653;SDS011;5375;51.250;6.776;2023-06-22T07:44:04;5.03;;;3.80;;
10653;SDS011;5375;51.250;6.776;2023-06-22T07:46:31;5.13;;;4.10;;
10653;SDS011;5375;51.250;6.776;2023-06-22T07:48:57;6.15;;;4.50;;
10653;SDS011;5375;51.250;6.776;2023-06-22T07:51:22;6.15;;;4.05;;
10653;SDS011;5375;51.250;6.776;2023-06-22T07:53:49;4.88;;;3.70;;
10653;SDS011;5375;51.250;6.776;2023-06-22T07:56:14;6.72;;;4.07;;
10653;SDS011;5375;51.250;6.776;2023-06-22T07:58:44;4.50;;;3.70;;
10653;SDS011;5375;51.250;6.776;2023-06-22T08:01:16;4.40;;;3.70;;
10653;SDS011;5375;51.250;6.776;2023-06-22T08:03:42;5.60;;;3.67;;
10653;SDS011;5375;51.250;6.776;2023-06-22T08:06:08;4.18;;;3.78;;
10653;SDS011;5375;51.250;6.776;2023-06-22T08:08:34;5.15;;;3.92;;
10653;SDS011;5375;51.250;6.776;2023-06-22T08:11:00;6.28;;;4.18;;
10653;SDS011;5375;51.250;6.776;2023-06-22T08:13:26;5.57;;;3.83;;
10653;SDS011;5375;51.250;6.776;2023-06-22T08:15:51;5.50;;;4.22;;
10653;SDS011;5375;51.250;6.776;2023-06-22T08:18:17;5.47;;;4.00;;
10653;SDS011;5375;51.250;6.776;2023-06-22T08:20:43;4.38;;;3.72;;
10653;SDS011;5375;51.250;6.776;2023-06-22T08:23:08;5.13;;;3.97;;
10653;SDS011;5375;51.250;6.776;2023-06-22T08:25:34;5.28;;;4.07;;
10653;SDS011;5375;51.250;6.776;2023-06-22T08:28:00;6.43;;;4.03;;
10653;SDS011;5375;51.250;6.776;2023-06-22T08:30:30;3.92;;;3.53;;
10653;SDS011;5375;51.250;6.776;2023-06-22T08:32:55;5.57;;;4.00;;
10653;SDS011;5375;51.250;6.776;2023-06-22T08:35:22;5.38;;;3.85;;
10653;SDS011;5375;51.250;6.776;2023-06-22T08:37:48;4.35;;;3.53;;
10653;SDS011;5375;51.250;6.776;2023-06-22T08:40:17;4.63;;;3.58;;
10653;SDS011;5375;51.250;6.776;2023-06-22T08:42:44;3.97;;;3.58;;
10653;SDS011;5375;51.250;6.776;2023-06-22T08:45:10;4.75;;;3.45;;
10653;SDS011;5375;51.250;6.776;2023-06-22T08:47:36;4.75;;;3.70;;
10653;SDS011;5375;51.250;6.776;2023-06-22T08:50:02;4.40;;;3.83;;
10653;SDS011;5375;51.250;6.776;2023-06-22T08:52:28;5.38;;;3.67;;
10653;SDS011;5375;51.250;6.776;2023-06-22T08:54:54;7.72;;;4.05;;
10653;SDS011;5375;51.250;6.776;2023-06-22T08:57:20;10.02;;;3.60;;
10653;SDS011;5375;51.250;6.776;2023-06-22T08:59:46;4.20;;;3.22;;
10653;SDS011;5375;51.250;6.776;2023-06-22T09:02:12;4.70;;;3.58;;
10653;SDS011;5375;51.250;6.776;2023-06-22T09:04:37;6.20;;;3.53;;
10653;SDS011;5375;51.250;6.776;2023-06-22T09:07:03;3.78;;;3.42;;
10653;SDS011;5375;51.250;6.776;2023-06-22T09:09:29;4.28;;;3.38;;
10653;SDS011;5375;51.250;6.776;2023-06-22T09:11:54;5.07;;;3.60;;
10653;SDS011;5375;51.250;6.776;2023-06-22T09:14:20;5.13;;;3.45;;
10653;SDS011;5375;51.250;6.776;2023-06-22T09:16:46;3.85;;;3.40;;
10653;SDS011;5375;51.250;6.776;2023-06-22T09:19:12;4.72;;;3.70;;
10653;SDS011;5375;51.250;6.776;2023-06-22T09:21:37;3.70;;;3.20;;
10653;SDS011;5375;51.250;6.776;2023-06-22T09:24:03;3.83;;;3.45;;
10653;SDS011;5375;51.250;6.776;2023-06-22T09:26:29;4.65;;;3.45;;
10653;SDS011;5375;51.250;6.776;2023-06-22T09:28:55;4.68;;;3.63;;
10653;SDS011;5375;51.250;6.776;2023-06-22T09:31:20;4.30;;;3.75;;
10653;SDS011;5375;51.250;6.776;2023-06-22T09:33:55;3.83;;;3.30;;
10653;SDS011;5375;51.250;6.776;2023-06-22T09:36:21;3.80;;;3.30;;
10653;SDS011;5375;51.250;6.776;2023-06-22T09:38:47;5.15;;;3.42;;
10653;SDS011;5375;51.250;6.776;2023-06-22T09:41:13;3.55;;;3.25;;
10653;SDS011;5375;51.250;6.776;2023-06-22T09:43:38;4.38;;;3.83;;
10653;SDS011;5375;51.250;6.776;2023-06-22T09:46:04;4.88;;;3.72;;
10653;SDS011;5375;51.250;6.776;2023-06-22T09:48:30;4.45;;;3.20;;
10653;SDS011;5375;51.250;6.776;2023-06-22T09:50:56;3.95;;;3.28;;
10653;SDS011;5375;51.250;6.776;2023-06-22T09:53:21;3.72;;;3.15;;
10653;SDS011;5375;51.250;6.776;2023-06-22T09:55:47;3.50;;;3.17;;
10653;SDS011;5375;51.250;6.776;2023-06-22T09:58:13;4.55;;;3.50;;
10653;SDS011;5375;51.250;6.776;2023-06-22T10:00:38;4.68;;;3.40;;
10653;SDS011;5375;51.250;6.776;2023-06-22T10:03:06;4.47;;;3.20;;
10653;SDS011;5375;51.250;6.776;2023-06-22T10:05:32;5.57;;;3.60;;
10653;SDS011;5375;51.250;6.776;2023-06-22T10:07:57;4.30;;;3.30;;
10653;SDS011;5375;51.250;6.776;2023-06-22T10:10:23;3.90;;;3.20;;
10653;SDS011;5375;51.250;6.776;2023-06-22T10:12:54;4.38;;;3.15;;
10653;SDS011;5375;51.250;6.776;2023-06-22T10:15:22;4.78;;;3.30;;
10653;SDS011;5375;51.250;6.776;2023-06-22T10:17:48;4.70;;;3.42;;
10653;SDS011;5375;51.250;6.776;2023-06-22T10:20:13;4.00;;;3.42;;
10653;SDS011;5375;51.250;6.776;2023-06-22T10:22:43;4.20;;;3.30;;
10653;SDS011;5375;51.250;6.776;2023-06-22T10:25:10;3.75;;;3.25;;
10653;SDS011;5375;51.250;6.776;2023-06-22T10:27:36;5.78;;;3.20;;
10653;SDS011;5375;51.250;6.776;2023-06-22T10:30:04;5.00;;;3.50;;
10653;SDS011;5375;51.250;6.776;2023-06-22T10:32:31;3.33;;;3.03;;
10653;SDS011;5375;51.250;6.776;2023-06-22T10:34:57;3.75;;;3.35;;
10653;SDS011;5375;51.250;6.776;2023-06-22T10:37:22;4.05;;;3.65;;
10653;SDS011;5375;51.250;6.776;2023-06-22T10:39:48;4.10;;;3.50;;
10653;SDS011;5375;51.250;6.776;2023-06-22T10:42:13;3.80;;;3.35;;
10653;SDS011;5375;51.250;6.776;2023-06-22T10:44:39;3.85;;;3.38;;
10653;SDS011;5375;51.250;6.776;2023-06-22T10:47:06;3.88;;;3.45;;
10653;SDS011;5375;51.250;6.776;2023-06-22T10:49:32;4.05;;;3.15;;
10653;SDS011;5375;51.250;6.776;2023-06-22T10:51:57;3.60;;;3.08;;
10653;SDS011;5375;51.250;6.776;2023-06-22T10:54:23;4.13;;;3.35;;
10653;SDS011;5375;51.250;6.776;2023-06-22T10:56:48;5.43;;;3.22;;
10653;SDS011;5375;51.250;6.776;2023-06-22T10:59:14;3.95;;;3.10;;
10653;SDS011;5375;51.250;6.776;2023-06-22T11:01:41;3.92;;;3.13;;
10653;SDS011;5375;51.250;6.776;2023-06-22T11:04:06;3.55;;;3.05;;
10653;SDS011;5375;51.250;6.776;2023-06-22T11:06:32;4.15;;;3.15;;
10653;SDS011;5375;51.250;6.776;2023-06-22T11:08:57;3.20;;;2.78;;
10653;SDS011;5375;51.250;6.776;2023-06-22T11:11:23;3.88;;;3.10;;
10653;SDS011;5375;51.250;6.776;2023-06-22T11:13:50;2.92;;;2.70;;
10653;SDS011;5375;51.250;6.776;2023-06-22T11:16:15;4.10;;;3.20;;
10653;SDS011;5375;51.250;6.776;2023-06-22T11:18:41;4.00;;;3.20;;
10653;SDS011;5375;51.250;6.776;2023-06-22T11:21:07;3.90;;;2.95;;
10653;SDS011;5375;51.250;6.776;2023-06-22T11:23:32;3.85;;;3.30;;
10653;SDS011;5375;51.250;6.776;2023-06-22T11:25:58;4.05;;;3.08;;
10653;SDS011;5375;51.250;6.776;2023-06-22T11:28:24;3.72;;;2.63;;
10653;SDS011;5375;51.250;6.776;2023-06-22T11:30:50;3.30;;;2.80;;
10653;SDS011;5375;51.250;6.776;2023-06-22T11:33:16;3.72;;;3.15;;
10653;SDS011;5375;51.250;6.776;2023-06-22T11:35:42;3.10;;;2.80;;
10653;SDS011;5375;51.250;6.776;2023-06-22T11:38:07;3.95;;;3.08;;
10653;SDS011;5375;51.250;6.776;2023-06-22T11:40:36;3.25;;;2.60;;
10653;SDS011;5375;51.250;6.776;2023-06-22T11:43:01;3.20;;;2.70;;
10653;SDS011;5375;51.250;6.776;2023-06-22T11:45:27;4.15;;;3.15;;
10653;SDS011;5375;51.250;6.776;2023-06-22T11:47:53;3.58;;;2.60;;
10653;SDS011;5375;51.250;6.776;2023-06-22T11:50:18;3.00;;;2.70;;
10653;SDS011;5375;51.250;6.776;2023-06-22T11:52:44;3.88;;;3.03;;
10653;SDS011;5375;51.250;6.776;2023-06-22T11:55:10;5.50;;;3.10;;
10653;SDS011;5375;51.250;6.776;2023-06-22T11:57:36;3.35;;;3.05;;
10653;SDS011;5375;51.250;6.776;2023-06-22T12:00:03;3.00;;;2.70;;
10653;SDS011;5375;51.250;6.776;2023-06-22T12:02:41;3.35;;;2.75;;
10653;SDS011;5375;51.250;6.776;2023-06-22T12:05:07;3.10;;;2.80;;
10653;SDS011;5375;51.250;6.776;2023-06-22T12:07:33;4.25;;;3.08;;
10653;SDS011;5375;51.250;6.776;2023-06-22T12:09:58;4.22;;;2.80;;
10653;SDS011;5375;51.250;6.776;2023-06-22T12:12:24;3.58;;;2.85;;
10653;SDS011;5375;51.250;6.776;2023-06-22T12:14:50;3.13;;;2.80;;
10653;SDS011;5375;51.250;6.776;2023-06-22T12:17:15;3.33;;;3.03;;
10653;SDS011;5375;51.250;6.776;2023-06-22T12:19:41;3.42;;;2.70;;
10653;SDS011;5375;51.250;6.776;2023-06-22T12:22:06;3.20;;;2.90;;
10653;SDS011;5375;51.250;6.776;2023-06-22T12:24:32;3.95;;;2.90;;
10653;SDS011;5375;51.250;6.776;2023-06-22T12:26:57;3.17;;;2.88;;
10653;SDS011;5375;51.250;6.776;2023-06-22T12:29:23;3.13;;;2.60;;
10653;SDS011;5375;51.250;6.776;2023-06-22T12:31:49;3.97;;;3.08;;
10653;SDS011;5375;51.250;6.776;2023-06-22T12:34:14;3.60;;;2.70;;
10653;SDS011;5375;51.250;6.776;2023-06-22T12:36:40;3.03;;;2.65;;
10653;SDS011;5375;51.250;6.776;2023-06-22T12:39:05;3.03;;;2.72;;
10653;SDS011;5375;51.250;6.776;2023-06-22T12:41:31;3.20;;;2.78;;
10653;SDS011;5375;51.250;6.776;2023-06-22T12:43:57;3.35;;;2.70;;
10653;SDS011;5375;51.250;6.776;2023-06-22T12:46:22;3.20;;;2.63;;
10653;SDS011;5375;51.250;6.776;2023-06-22T12:48:48;3.35;;;2.95;;
10653;SDS011;5375;51.250;6.776;2023-06-22T12:51:19;3.63;;;2.85;;
10653;SDS011;5375;51.250;6.776;2023-06-22T12:53:46;3.30;;;3.00;;
10653;SDS011;5375;51.250;6.776;2023-06-22T12:56:12;3.05;;;2.70;;
10653;SDS011;5375;51.250;6.776;2023-06-22T12:58:38;3.85;;;3.00;;
10653;SDS011;5375;51.250;6.776;2023-06-22T13:01:03;3.15;;;2.85;;
10653;SDS011;5375;51.250;6.776;2023-06-22T13:03:29;3.05;;;2.75;;
10653;SDS011;5375;51.250;6.776;2023-06-22T13:05:54;3.20;;;2.90;;
10653;SDS011;5375;51.250;6.776;2023-06-22T13:08:20;3.60;;;2.80;;
10653;SDS011;5375;51.250;6.776;2023-06-22T13:10:46;3.85;;;3.05;;
10653;SDS011;5375;51.250;6.776;2023-06-22T13:13:11;3.05;;;2.72;;
10653;SDS011;5375;51.250;6.776;2023-06-22T13:15:37;3.03;;;2.72;;
10653;SDS011;5375;51.250;6.776;2023-06-22T13:18:02;3.58;;;2.95;;
10653;SDS011;5375;51.250;6.776;2023-06-22T13:20:28;3.63;;;2.90;;
10653;SDS011;5375;51.250;6.776;2023-06-22T13:22:54;2.72;;;2.50;;
10653;SDS011;5375;51.250;6.776;2023-06-22T13:25:21;3.58;;;3.10;;
10653;SDS011;5375;51.250;6.776;2023-06-22T13:27:48;3.22;;;2.70;;
10653;SDS011;5375;51.250;6.776;2023-06-22T13:30:14;2.70;;;2.50;;
10653;SDS011;5375;51.250;6.776;2023-06-22T13:32:40;3.65;;;2.70;;
10653;SDS011;5375;51.250;6.776;2023-06-22T13:35:09;3.45;;;3.00;;
10653;SDS011;5375;51.250;6.776;2023-06-22T13:37:35;3.50;;;2.72;;
10653;SDS011;5375;51.250;6.776;2023-06-22T13:40:01;3.60;;;2.40;;
10653;SDS011;5375;51.250;6.776;2023-06-22T13:42:30;2.85;;;2.60;;
10653;SDS011;5375;51.250;6.776;2023-06-22T13:44:56;3.00;;;2.70;;
10653;SDS011;5375;51.250;6.776;2023-06-22T13:47:21;3.50;;;2.97;;
10653;SDS011;5375;51.250;6.776;2023-06-22T13:49:47;3.03;;;2.60;;
10653;SDS011;5375;51.250;6.776;2023-06-22T13:52:12;3.15;;;2.80;;
10653;SDS011;5375;51.250;6.776;2023-06-22T13:54:38;3.17;;;2.88;;
10653;SDS011;5375;51.250;6.776;2023-06-22T13:57:04;3.20;;;2.80;;
10653;SDS011;5375;51.250;6.776;2023-06-22T13:59:30;3.17;;;2.75;;
10653;SDS011;5375;51.250;6.776;2023-06-22T14:01:55;3.47;;;2.58;;
10653;SDS011;5375;51.250;6.776;2023-06-22T14:04:24;2.95;;;2.58;;
10653;SDS011;5375;51.250;6.776;2023-06-22T14:06:49;3.45;;;2.88;;
10653;SDS011;5375;51.250;6.776;2023-06-22T14:09:15;3.30;;;2.88;;
10653;SDS011;5375;51.250;6.776;2023-06-22T14:11:40;2.97;;;2.35;;
10653;SDS011;5375;51.250;6.776;2023-06-22T14:14:06;3.65;;;2.80;;
10653;SDS011;5375;51.250;6.776;2023-06-22T14:16:32;3.13;;;2.60;;
10653;SDS011;5375;51.250;6.776;2023-06-22T14:18:57;3.05;;;2.75;;
10653;SDS011;5375;51.250;6.776;2023-06-22T14:21:23;2.97;;;2.70;;
10653;SDS011;5375;51.250;6.776;2023-06-22T14:23:49;2.70;;;2.50;;
10653;SDS011;5375;51.250;6.776;2023-06-22T14:26:15;2.60;;;2.40;;
10653;SDS011;5375;51.250;6.776;2023-06-22T14:28:43;3.05;;;2.78;;
10653;SDS011;5375;51.250;6.776;2023-06-22T14:31:12;2.92;;;2.50;;
10653;SDS011;5375;51.250;6.776;2023-06-22T14:33:39;2.90;;;2.60;;
10653;SDS011;5375;51.250;6.776;2023-06-22T14:36:05;2.80;;;2.50;;
10653;SDS011;5375;51.250;6.776;2023-06-22T14:38:30;2.95;;;2.58;;
10653;SDS011;5375;51.250;6.776;2023-06-22T14:40:56;3.53;;;2.95;;
10653;SDS011;5375;51.250;6.776;2023-06-22T14:43:21;3.28;;;2.97;;
10653;SDS011;5375;51.250;6.776;2023-06-22T14:45:47;3.30;;;2.83;;
10653;SDS011;5375;51.250;6.776;2023-06-22T14:48:13;4.05;;;2.75;;
10653;SDS011;5375;51.250;6.776;2023-06-22T14:50:38;6.53;;;2.85;;
10653;SDS011;5375;51.250;6.776;2023-06-22T14:53:04;3.08;;;2.67;;
10653;SDS011;5375;51.250;6.776;2023-06-22T14:55:29;3.20;;;2.70;;
10653;SDS011;5375;51.250;6.776;2023-06-22T14:57:55;4.63;;;2.95;;
10653;SDS011;5375;51.250;6.776;2023-06-22T15:00:20;3.47;;;2.50;;